createdAt,value
2023-05-08T00:00:03.740Z,68
2023-05-08T00:20:03.116Z,68
2023-05-08T00:40:03.499Z,68
2023-05-08T01:00:03.726Z,69
2023-05-08T01:20:03.024Z,69
2023-05-08T01:40:03.459Z,69
2023-05-08T02:00:03.780Z,69
2023-05-08T02:20:03.924Z,69
2023-05-08T02:40:03.324Z,70
2023-05-08T03:00:03.861Z,71
2023-05-08T03:20:03.198Z,71
2023-05-08T03:40:03.451Z,72
2023-05-08T04:00:03.724Z,72
2023-05-08T04:20:03.495Z,72
2023-05-08T04:40:04.006Z,72
2023-05-08T05:00:03.385Z,71
2023-05-08T05:20:03.636Z,69
2023-05-08T05:40:03.871Z,67
2023-05-08T06:00:03.363Z,64
2023-05-08T06:20:04.275Z,60
2023-05-08T06:40:13.043Z,58
2023-05-08T07:00:04.468Z,54
2023-05-08T07:20:03.772Z,50
2023-05-08T07:40:04.422Z,44
2023-05-08T08:00:04.135Z,40
2023-05-08T08:20:03.800Z,39
2023-05-08T08:40:03.443Z,38
2023-05-08T09:00:04.280Z,36
2023-05-08T09:20:03.755Z,34
2023-05-08T09:40:03.244Z,33
2023-05-08T10:00:03.857Z,32
2023-05-08T10:20:03.297Z,31
2023-05-08T10:40:03.848Z,31
2023-05-08T11:00:03.079Z,31
2023-05-08T11:20:03.909Z,31
2023-05-08T11:40:03.594Z,30
2023-05-08T12:00:04.081Z,29
2023-05-08T12:20:03.685Z,28
2023-05-08T12:40:04.405Z,28
2023-05-08T13:00:05.209Z,30
2023-05-08T13:20:06.438Z,31
2023-05-08T13:40:04.022Z,31
2023-05-08T14:00:03.478Z,31
2023-05-08T14:20:04.358Z,32
2023-05-08T14:40:03.929Z,32
2023-05-08T15:00:03.553Z,32
2023-05-08T15:20:03.385Z,32
2023-05-08T15:40:03.912Z,33
2023-05-08T16:00:03.930Z,34
2023-05-08T16:20:03.583Z,34
2023-05-08T16:40:04.155Z,35
2023-05-08T17:00:03.916Z,35
2023-05-08T17:20:03.518Z,35
2023-05-08T17:40:04.109Z,35
2023-05-08T18:00:03.664Z,35
2023-05-08T18:20:04.442Z,36
2023-05-08T18:40:04.045Z,37
2023-05-08T19:00:03.470Z,39
2023-05-08T19:20:04.244Z,40
2023-05-08T19:40:03.818Z,42
2023-05-08T20:00:03.455Z,42
2023-05-08T20:20:04.120Z,44
2023-05-08T20:40:03.680Z,45
2023-05-08T21:00:04.251Z,46
2023-05-08T21:20:04.069Z,47
2023-05-08T21:40:04.117Z,48
2023-05-08T22:00:03.684Z,50
2023-05-08T22:20:03.650Z,52
2023-05-08T22:40:04.156Z,53
2023-05-08T23:00:03.470Z,53
2023-05-08T23:20:03.954Z,54
2023-05-08T23:40:03.904Z,56
